Time;durP1;ratioP1;P1;durP2;ratioP2;P2;SDS_P1;SDS_P2;PMS_P1;PMS_P2;Temp;Humidity;BMP_temperature;BMP_pressure;BME280_temperature;BME280_humidity;BME280_pressure;Samples;Min_cycle;Max_cycle;Signal;HPM_P1;HPM_P2
2022/09/27 00:01:24;;;;;;;2.43;1.20;;;15.50;63.80;;;;;;5074773;28;20443;-87
2022/09/27 00:03:55;;;;;;;2.03;1.30;;;15.60;63.20;;;;;;5058493;28;20459;-87
2022/09/27 00:06:25;;;;;;;4.40;1.30;;;15.80;63.10;;;;;;5071854;28;20562;-89
2022/09/27 00:08:52;;;;;;;1.60;1.50;;;15.70;61.90;;;;;;5048058;28;20533;-87
2022/09/27 00:11:24;;;;;;;1.30;1.20;;;15.80;62.20;;;;;;5073726;28;20993;-87
2022/09/27 00:13:51;;;;;;;1.30;1.20;;;16.00;62.60;;;;;;5056278;28;20864;-88
2022/09/27 00:16:21;;;;;;;2.10;1.50;;;16.20;62.10;;;;;;5073354;28;21027;-87
2022/09/27 00:18:48;;;;;;;1.30;1.13;;;16.10;61.50;;;;;;5082417;28;20445;-88
2022/09/27 00:21:15;;;;;;;7.50;1.50;;;16.20;61.40;;;;;;5070641;28;20454;-87
2022/09/27 00:23:42;;;;;;;1.30;1.17;;;16.20;61.30;;;;;;5072236;28;20503;-88
2022/09/27 00:26:12;;;;;;;1.30;1.20;;;16.20;61.10;;;;;;5071280;28;20848;-87
2022/09/27 00:28:40;;;;;;;1.20;1.10;;;16.30;61.10;;;;;;5072838;28;20448;-88
2022/09/27 00:31:19;;;;;;;1.30;1.20;;;16.40;60.20;;;;;;5059507;28;20563;-87
2022/09/27 00:33:48;;;;;;;1.37;1.00;;;16.40;59.90;;;;;;5074793;28;20478;-87
2022/09/27 00:36:16;;;;;;;1.40;1.00;;;16.40;60.20;;;;;;5083275;28;20444;-88
2022/09/27 00:38:43;;;;;;;1.30;1.20;;;16.20;60.10;;;;;;5063660;28;20440;-89
2022/09/27 00:41:15;;;;;;;2.30;1.17;;;15.90;60.80;;;;;;5075980;28;20478;-87
2022/09/27 00:43:48;;;;;;;1.10;1.00;;;15.70;61.10;;;;;;5063956;28;20472;-87
2022/09/27 00:46:22;;;;;;;1.30;1.20;;;15.70;61.70;;;;;;5078669;28;20472;-88
2022/09/27 00:49:02;;;;;;;1.23;1.13;;;15.70;62.40;;;;;;5063898;28;20460;-86
2022/09/27 00:51:30;;;;;;;1.50;1.40;;;15.80;62.70;;;;;;5074703;28;20853;-89
2022/09/27 00:53:58;;;;;;;1.57;1.03;;;15.60;62.60;;;;;;5075434;28;20472;-88
2022/09/27 00:56:30;;;;;;;1.67;0.90;;;15.60;62.90;;;;;;5073292;28;20969;-87
2022/09/27 00:59:03;;;;;;;1.63;1.50;;;15.60;62.30;;;;;;5064398;28;20517;-87
2022/09/27 01:01:30;;;;;;;0.90;0.80;;;15.50;62.30;;;;;;5062993;28;20479;-88
2022/09/27 01:04:01;;;;;;;1.27;1.10;;;15.40;62.70;;;;;;5057924;28;20479;-88
2022/09/27 01:06:29;;;;;;;1.20;1.10;;;15.50;63.10;;;;;;5057544;28;21307;-88
2022/09/27 01:08:55;;;;;;;1.13;0.97;;;15.40;63.00;;;;;;5064717;28;20448;-87
2022/09/27 01:11:35;;;;;;;1.37;1.10;;;15.50;63.70;;;;;;5055667;28;20445;-88
2022/09/27 01:14:16;;;;;;;1.93;1.00;;;15.50;62.70;;;;;;5081781;28;21159;-87
2022/09/27 01:16:54;;;;;;;1.10;1.00;;;15.60;62.80;;;;;;5090098;28;20437;-88
2022/09/27 01:19:46;;;;;;;1.43;1.20;;;15.60;63.40;;;;;;5060730;28;20844;-87
2022/09/27 01:22:17;;;;;;;1.40;0.80;;;15.70;62.80;;;;;;5073104;28;20798;-87
2022/09/27 01:25:08;;;;;;;1.70;1.10;;;15.70;62.00;;;;;;5048337;28;20456;-87
2022/09/27 01:28:04;;;;;;;2.23;1.10;;;15.40;63.10;;;;;;5073206;28;21103;-87
2022/09/27 01:30:41;;;;;;;1.30;1.20;;;15.40;63.10;;;;;;5070537;28;20444;-89
2022/09/27 01:33:20;;;;;;;1.13;1.00;;;15.50;62.80;;;;;;5059371;28;20483;-87
2022/09/27 01:36:01;;;;;;;1.43;1.33;;;15.50;62.90;;;;;;5062978;28;20436;-89
2022/09/27 01:38:41;;;;;;;2.80;1.10;;;15.30;63.20;;;;;;5058181;28;20445;-87
2022/09/27 01:41:20;;;;;;;1.50;1.00;;;15.10;64.10;;;;;;5080959;28;20458;-87
2022/09/27 01:44:20;;;;;;;1.07;0.90;;;15.30;63.80;;;;;;5069744;28;20464;-88
2022/09/27 01:46:55;;;;;;;1.00;0.93;;;15.50;62.40;;;;;;5069970;28;21128;-87
2022/09/27 01:49:37;;;;;;;1.47;1.10;;;15.50;63.50;;;;;;5065247;28;20448;-88
2022/09/27 01:52:07;;;;;;;1.00;0.90;;;15.50;62.40;;;;;;5069810;28;20449;-88
2022/09/27 01:54:40;;;;;;;2.90;1.30;;;15.50;63.10;;;;;;5072874;28;20511;-88
2022/09/27 01:57:22;;;;;;;1.20;1.10;;;15.40;63.20;;;;;;5069812;28;20960;-87
2022/09/27 01:59:53;;;;;;;1.50;0.90;;;15.40;63.90;;;;;;5062170;28;20448;-87
2022/09/27 02:02:45;;;;;;;1.90;1.00;;;15.30;63.70;;;;;;5071210;28;20559;-88
2022/09/27 02:05:54;;;;;;;0.93;0.80;;;15.10;63.70;;;;;;5056180;28;20482;-87
2022/09/27 02:08:52;;;;;;;1.20;1.10;;;15.10;64.10;;;;;;5073486;28;20459;-86
2022/09/27 02:11:49;;;;;;;0.97;0.87;;;15.20;64.20;;;;;;5062809;28;20451;-88
2022/09/27 02:14:22;;;;;;;1.10;1.00;;;14.80;65.00;;;;;;5056845;28;20460;-87
2022/09/27 02:17:03;;;;;;;1.00;0.90;;;15.00;65.60;;;;;;5052340;28;20777;-88
2022/09/27 02:19:40;;;;;;;1.10;1.00;;;15.00;65.60;;;;;;5058379;28;20466;-87
2022/09/27 02:22:15;;;;;;;1.20;1.10;;;15.00;66.00;;;;;;5061629;28;20526;-87
2022/09/27 02:24:47;;;;;;;1.30;1.20;;;15.20;65.50;;;;;;5057740;28;20471;-87
2022/09/27 02:27:21;;;;;;;1.47;1.37;;;15.40;64.80;;;;;;5074345;28;20697;-87
2022/09/27 02:29:52;;;;;;;1.93;1.20;;;15.20;64.90;;;;;;5076068;28;20451;-88
2022/09/27 02:32:19;;;;;;;1.17;1.07;;;15.10;65.10;;;;;;5056583;28;20448;-87
2022/09/27 02:34:48;;;;;;;1.20;1.10;;;15.10;64.90;;;;;;5071662;28;20472;-86
2022/09/27 02:37:15;;;;;;;2.07;1.50;;;15.00;65.40;;;;;;5069697;28;20456;-88
2022/09/27 02:39:42;;;;;;;7.63;3.40;;;15.10;65.00;;;;;;5062073;28;20550;-87
2022/09/27 02:42:10;;;;;;;20.43;5.13;;;15.10;64.60;;;;;;5042865;28;20456;-88
2022/09/27 02:44:39;;;;;;;34.07;9.20;;;15.20;64.80;;;;;;5054950;28;20498;-87
2022/09/27 02:47:23;;;;;;;20.33;7.37;;;15.20;64.20;;;;;;5046014;28;20464;-87
2022/09/27 02:50:00;;;;;;;109.47;29.47;;;15.20;64.10;;;;;;5070685;28;20475;-88
2022/09/27 02:53:00;;;;;;;6.57;4.37;;;15.20;64.30;;;;;;5073399;28;20471;-88
2022/09/27 02:55:47;;;;;;;3.37;2.27;;;15.20;63.60;;;;;;5062195;28;20463;-88
2022/09/27 02:58:47;;;;;;;2.60;2.40;;;15.10;64.20;;;;;;5070203;28;20452;-87
2022/09/27 03:01:37;;;;;;;2.33;2.10;;;15.00;63.70;;;;;;5039694;28;20535;-87
2022/09/27 03:04:17;;;;;;;5.53;2.07;;;14.90;64.00;;;;;;5079508;28;20468;-88
2022/09/27 03:06:47;;;;;;;7.17;4.93;;;14.90;63.70;;;;;;5063292;28;21004;-88
2022/09/27 03:09:19;;;;;;;4.43;2.93;;;14.70;63.90;;;;;;5079567;28;20463;-89
2022/09/27 03:11:46;;;;;;;7.77;3.93;;;14.40;64.50;;;;;;5061900;28;20452;-87
2022/09/27 03:14:13;;;;;;;3.57;2.30;;;14.40;65.00;;;;;;5058842;28;20480;-88
2022/09/27 03:16:48;;;;;;;4.33;1.70;;;14.40;64.50;;;;;;5047120;28;21039;-90
2022/09/27 03:19:35;;;;;;;7.93;3.63;;;14.60;64.70;;;;;;5070353;28;20508;-88
2022/09/27 03:22:22;;;;;;;5.73;2.33;;;14.70;64.30;;;;;;5072703;28;20480;-88
2022/09/27 03:24:49;;;;;;;9.50;3.43;;;14.60;64.50;;;;;;5062725;28;20984;-88
2022/09/27 03:27:16;;;;;;;17.67;6.27;;;14.60;64.70;;;;;;5072558;28;20976;-87
2022/09/27 03:29:43;;;;;;;5.63;3.20;;;14.50;64.00;;;;;;5081351;28;20464;-87
2022/09/27 03:32:11;;;;;;;14.33;5.57;;;14.50;64.60;;;;;;5058076;28;20489;-88
2022/09/27 03:35:10;;;;;;;8.27;4.33;;;14.60;64.40;;;;;;5065917;28;20490;-87
2022/09/27 03:37:39;;;;;;;5.10;2.80;;;14.70;64.40;;;;;;5054040;28;20437;-87
2022/09/27 03:40:08;;;;;;;12.13;6.03;;;14.50;64.30;;;;;;5061552;28;20540;-86
2022/09/27 03:42:35;;;;;;;8.47;4.23;;;14.50;64.20;;;;;;5072646;28;20451;-87
2022/09/27 03:45:02;;;;;;;11.43;4.70;;;14.40;65.00;;;;;;5053600;28;20471;-87
2022/09/27 03:47:29;;;;;;;3.30;2.30;;;14.50;65.10;;;;;;5048477;28;20473;-87
2022/09/27 03:49:56;;;;;;;8.77;4.13;;;14.40;65.00;;;;;;5050937;28;20497;-87
2022/09/27 03:52:23;;;;;;;4.90;3.20;;;14.40;64.70;;;;;;5056401;28;20443;-87
2022/09/27 03:54:52;;;;;;;5.57;3.10;;;14.30;65.50;;;;;;5057728;28;20526;-86
2022/09/27 03:57:19;;;;;;;26.00;10.03;;;14.30;65.40;;;;;;5035806;28;20827;-87
2022/09/27 03:59:46;;;;;;;16.20;5.30;;;14.30;65.30;;;;;;5082256;28;20451;-87
2022/09/27 04:02:39;;;;;;;10.70;3.97;;;14.20;65.70;;;;;;5071229;28;20456;-86
2022/09/27 04:05:36;;;;;;;4.23;2.83;;;14.10;66.40;;;;;;5072600;28;20944;-86
2022/09/27 04:08:07;;;;;;;6.43;3.03;;;14.10;66.80;;;;;;5046949;28;20527;-87
2022/09/27 04:10:36;;;;;;;3.50;2.50;;;14.00;66.70;;;;;;5054326;28;20449;-87
2022/09/27 04:13:03;;;;;;;15.73;5.80;;;14.10;66.70;;;;;;5055194;28;20526;-86
2022/09/27 04:15:36;;;;;;;14.90;6.97;;;14.20;66.30;;;;;;5048549;28;20456;-86
2022/09/27 04:18:22;;;;;;;6.97;3.27;;;14.10;66.30;;;;;;5065552;28;20493;-86
2022/09/27 04:21:12;;;;;;;7.10;4.40;;;14.10;66.40;;;;;;5069522;28;20460;-86
2022/09/27 04:23:45;;;;;;;4.20;3.23;;;14.00;67.10;;;;;;5078986;28;20472;-85
2022/09/27 04:26:16;;;;;;;4.80;3.80;;;14.00;67.20;;;;;;5072017;28;20479;-85
2022/09/27 04:28:52;;;;;;;9.70;6.03;;;14.00;67.40;;;;;;5045840;28;20908;-87
2022/09/27 04:31:20;;;;;;;1.47;1.37;;;14.10;67.00;;;;;;5047714;28;20491;-86
2022/09/27 04:33:54;;;;;;;3.67;2.70;;;14.00;67.00;;;;;;5058018;28;20715;-87
2022/09/27 04:36:27;;;;;;;3.63;2.80;;;14.00;67.00;;;;;;5046341;28;20441;-87
2022/09/27 04:39:16;;;;;;;8.43;4.70;;;14.10;66.40;;;;;;5054711;28;20460;-86
2022/09/27 04:41:46;;;;;;;2.47;2.10;;;14.20;66.40;;;;;;5041824;28;20462;-86
2022/09/27 04:44:13;;;;;;;10.40;4.83;;;14.10;66.40;;;;;;5064034;28;20480;-86
2022/09/27 04:46:44;;;;;;;1.60;1.40;;;14.20;66.30;;;;;;5037836;28;20478;-86
2022/09/27 04:49:11;;;;;;;4.27;2.90;;;14.40;65.80;;;;;;5040090;28;20521;-86
2022/09/27 04:51:39;;;;;;;10.00;5.37;;;14.40;64.90;;;;;;5077610;28;20826;-86
2022/09/27 04:54:06;;;;;;;3.40;2.27;;;14.20;65.30;;;;;;5091244;28;20487;-86
2022/09/27 04:56:36;;;;;;;7.00;3.97;;;14.20;65.60;;;;;;5063430;28;20441;-86
2022/09/27 04:59:06;;;;;;;6.50;3.60;;;14.10;66.60;;;;;;5062418;28;22031;-85
2022/09/27 05:01:34;;;;;;;3.30;2.73;;;13.80;66.60;;;;;;5069766;28;20451;-84
2022/09/27 05:04:09;;;;;;;2.80;1.70;;;13.90;66.90;;;;;;5062568;28;20467;-86
2022/09/27 05:06:39;;;;;;;4.27;1.77;;;13.90;66.20;;;;;;5075055;28;20472;-88
2022/09/27 05:09:16;;;;;;;2.27;1.80;;;13.80;65.80;;;;;;5055832;28;20503;-88
2022/09/27 05:11:55;;;;;;;3.10;2.33;;;13.80;66.70;;;;;;5062494;28;20465;-88
2022/09/27 05:14:24;;;;;;;6.67;4.23;;;13.90;66.70;;;;;;5054845;28;21015;-87
2022/09/27 05:16:58;;;;;;;5.17;2.80;;;13.80;66.20;;;;;;5062355;28;20535;-87
2022/09/27 05:19:38;;;;;;;3.47;2.90;;;13.80;66.40;;;;;;5046622;28;20502;-88
2022/09/27 05:22:12;;;;;;;4.97;3.77;;;13.50;65.40;;;;;;5062751;28;20828;-87
2022/09/27 05:24:39;;;;;;;2.00;1.43;;;13.50;66.10;;;;;;5046229;28;20488;-88
2022/09/27 05:27:08;;;;;;;2.93;2.60;;;13.60;65.90;;;;;;5070312;28;20483;-89
2022/09/27 05:29:37;;;;;;;3.10;2.47;;;13.40;66.00;;;;;;5055901;28;20475;-88
2022/09/27 05:32:22;;;;;;;4.27;1.97;;;13.60;66.80;;;;;;5044602;28;20448;-88
2022/09/27 05:34:55;;;;;;;3.07;1.83;;;13.60;66.50;;;;;;5073310;28;20464;-88
2022/09/27 05:37:22;;;;;;;3.50;2.43;;;13.60;66.60;;;;;;5060820;28;20833;-88
2022/09/27 05:39:50;;;;;;;2.80;1.47;;;13.70;65.80;;;;;;5064456;28;21022;-89
2022/09/27 05:42:18;;;;;;;3.40;3.10;;;13.50;66.20;;;;;;5048014;28;20520;-90
2022/09/27 05:44:47;;;;;;;4.43;1.70;;;13.50;66.00;;;;;;5072741;28;20478;-89
2022/09/27 05:47:15;;;;;;;1.90;1.67;;;13.50;66.00;;;;;;5064330;28;20956;-88
2022/09/27 05:49:42;;;;;;;3.40;2.17;;;13.40;66.00;;;;;;5075883;28;20453;-88
2022/09/27 05:52:11;;;;;;;2.93;2.00;;;13.20;66.40;;;;;;5064199;28;20858;-88
2022/09/27 05:54:38;;;;;;;3.30;2.20;;;13.20;66.70;;;;;;5054541;28;21085;-89
2022/09/27 05:57:06;;;;;;;6.50;2.97;;;13.40;66.80;;;;;;5038758;28;20453;-87
2022/09/27 05:59:44;;;;;;;12.60;2.70;;;13.40;66.60;;;;;;5055969;28;20455;-87
2022/09/27 06:02:21;;;;;;;5.23;3.03;;;13.40;65.70;;;;;;5072745;28;20444;-88
2022/09/27 06:05:11;;;;;;;7.40;3.30;;;13.70;66.20;;;;;;5053243;28;20551;-87
2022/09/27 06:08:00;;;;;;;2.27;1.60;;;13.70;65.50;;;;;;5068766;28;20499;-87
2022/09/27 06:10:33;;;;;;;2.90;1.30;;;13.70;65.50;;;;;;5043910;28;20460;-87
2022/09/27 06:13:04;;;;;;;9.77;4.30;;;13.70;65.60;;;;;;5070958;28;20555;-87
2022/09/27 06:15:41;;;;;;;9.47;5.10;;;13.80;65.20;;;;;;5074092;28;20809;-87
2022/09/27 06:18:11;;;;;;;3.77;2.43;;;13.90;65.10;;;;;;5056487;28;20466;-87
2022/09/27 06:20:40;;;;;;;8.80;3.33;;;13.90;64.80;;;;;;5078374;28;20464;-87
2022/09/27 06:23:11;;;;;;;5.27;2.13;;;13.90;64.60;;;;;;5043367;28;20534;-90
2022/09/27 06:25:39;;;;;;;1.50;1.20;;;13.90;64.70;;;;;;5078871;28;20440;-88
2022/09/27 06:28:20;;;;;;;2.30;1.47;;;14.00;64.80;;;;;;5037642;28;20471;-89
2022/09/27 06:30:50;;;;;;;1.60;1.23;;;14.00;64.90;;;;;;5051914;28;20444;-88
2022/09/27 06:33:30;;;;;;;5.87;3.10;;;14.10;64.80;;;;;;5063829;28;20473;-88
2022/09/27 06:36:01;;;;;;;5.03;2.13;;;14.10;64.10;;;;;;5061551;28;20513;-90
2022/09/27 06:38:29;;;;;;;2.13;1.50;;;14.10;64.80;;;;;;5060771;28;20798;-88
2022/09/27 06:41:12;;;;;;;3.40;2.27;;;14.10;64.20;;;;;;5070460;28;20438;-87
2022/09/27 06:44:06;;;;;;;2.30;1.30;;;14.10;64.10;;;;;;5054535;28;22151;-87
2022/09/27 06:46:51;;;;;;;3.67;2.87;;;14.10;64.10;;;;;;5077489;28;20454;-87
2022/09/27 06:49:58;;;;;;;3.50;2.40;;;14.10;63.70;;;;;;5059237;28;20471;-89
2022/09/27 06:52:26;;;;;;;8.63;4.90;;;14.30;64.20;;;;;;5042756;28;20436;-87
2022/09/27 06:54:53;;;;;;;3.80;2.60;;;14.20;63.60;;;;;;5031086;28;20552;-87
2022/09/27 07:03:07;;;;;;;2.00;1.90;;;14.20;64.00;;;;;;5070291;28;20458;-86
2022/09/27 07:05:58;;;;;;;8.60;5.17;;;14.40;63.60;;;;;;5068992;28;20451;-89
2022/09/27 07:08:41;;;;;;;4.23;3.33;;;14.30;63.60;;;;;;5070015;28;20466;-88
2022/09/27 07:11:08;;;;;;;5.80;3.50;;;14.40;64.00;;;;;;5068695;28;20464;-87
2022/09/27 07:13:39;;;;;;;8.10;3.87;;;14.30;64.10;;;;;;5058226;28;20483;-88
2022/09/27 07:16:07;;;;;;;3.43;2.60;;;14.40;64.70;;;;;;5056122;28;20702;-87
2022/09/27 07:18:34;;;;;;;2.23;2.03;;;14.60;63.60;;;;;;5069948;28;20448;-87
2022/09/27 07:21:02;;;;;;;4.30;2.90;;;14.50;63.20;;;;;;5068852;28;21073;-87
2022/09/27 07:23:30;;;;;;;2.23;1.90;;;14.50;63.50;;;;;;5052620;28;21172;-89
2022/09/27 07:26:03;;;;;;;1.80;1.70;;;14.50;62.60;;;;;;5071403;28;20636;-87
2022/09/27 07:28:30;;;;;;;2.97;2.17;;;14.60;63.10;;;;;;5066980;28;20460;-88
2022/09/27 07:30:58;;;;;;;3.23;1.90;;;14.70;63.20;;;;;;5074866;28;20455;-87
2022/09/27 07:33:25;;;;;;;2.33;2.13;;;14.80;63.20;;;;;;5073888;28;20460;-88
2022/09/27 07:35:52;;;;;;;2.20;1.27;;;14.70;62.80;;;;;;5071323;28;20940;-87
2022/09/27 07:38:21;;;;;;;1.60;1.50;;;14.40;62.20;;;;;;5057625;28;20456;-88
2022/09/27 07:40:48;;;;;;;2.43;1.50;;;14.50;63.70;;;;;;5064188;28;20956;-87
2022/09/27 07:43:16;;;;;;;1.17;1.00;;;14.50;62.70;;;;;;5059622;28;20490;-87
2022/09/27 07:45:43;;;;;;;1.50;1.40;;;14.60;62.80;;;;;;5066613;28;20444;-87
2022/09/27 07:48:29;;;;;;;2.70;1.93;;;14.40;62.60;;;;;;5074245;28;20464;-87
2022/09/27 07:51:19;;;;;;;4.70;2.23;;;14.50;62.90;;;;;;5072392;28;20863;-86
2022/09/27 07:53:51;;;;;;;2.50;2.30;;;14.50;63.30;;;;;;5058880;28;20479;-87
2022/09/27 07:56:41;;;;;;;2.23;2.03;;;14.60;62.50;;;;;;5045901;28;20450;-88
2022/09/27 07:59:11;;;;;;;2.23;1.47;;;14.90;62.10;;;;;;5049828;28;20451;-88
2022/09/27 08:01:38;;;;;;;3.00;2.20;;;14.70;62.30;;;;;;5056389;28;21189;-88
2022/09/27 08:04:05;;;;;;;1.70;1.03;;;14.80;62.60;;;;;;5074749;28;20546;-88
2022/09/27 08:06:32;;;;;;;1.50;1.40;;;14.70;62.40;;;;;;5049173;28;20452;-88
2022/09/27 08:09:02;;;;;;;2.27;1.50;;;14.60;63.00;;;;;;5057706;28;20475;-89
2022/09/27 08:11:29;;;;;;;2.37;1.30;;;14.80;63.10;;;;;;5061739;28;20451;-88
2022/09/27 08:13:56;;;;;;;1.70;1.40;;;14.70;62.40;;;;;;5065533;28;20469;-87
2022/09/27 08:16:28;;;;;;;1.70;1.60;;;14.60;62.50;;;;;;5040355;28;20977;-87
2022/09/27 08:19:17;;;;;;;1.60;1.50;;;14.70;62.10;;;;;;5050239;28;20534;-87
2022/09/27 08:21:53;;;;;;;1.17;1.07;;;14.70;62.70;;;;;;5064577;28;20565;-87
2022/09/27 08:24:24;;;;;;;2.60;2.40;;;14.70;63.20;;;;;;5073893;28;20490;-86
2022/09/27 08:27:11;;;;;;;1.70;1.60;;;14.90;63.20;;;;;;5074054;28;20684;-87
2022/09/27 08:29:57;;;;;;;1.47;1.37;;;14.90;61.90;;;;;;5062041;28;20441;-87
2022/09/27 08:32:24;;;;;;;1.37;1.20;;;14.90;62.00;;;;;;5057637;28;20490;-89
2022/09/27 08:34:52;;;;;;;1.47;1.37;;;15.00;62.30;;;;;;5047805;28;21051;-90
2022/09/27 08:37:21;;;;;;;1.90;1.80;;;14.70;62.50;;;;;;5056784;28;20444;-87
2022/09/27 08:39:50;;;;;;;4.13;1.20;;;14.80;63.20;;;;;;5044169;28;20441;-87
2022/09/27 08:42:28;;;;;;;1.30;1.20;;;14.70;62.80;;;;;;5070358;28;20467;-87
2022/09/27 08:45:03;;;;;;;1.30;1.20;;;15.00;62.90;;;;;;5057285;28;20518;-87
2022/09/27 08:47:37;;;;;;;1.90;1.20;;;14.90;62.40;;;;;;5048379;28;20964;-87
2022/09/27 08:50:13;;;;;;;1.47;1.13;;;14.60;63.00;;;;;;5074117;28;20466;-87
2022/09/27 08:52:44;;;;;;;1.43;1.03;;;14.50;63.50;;;;;;5049367;28;20455;-88
2022/09/27 08:55:22;;;;;;;1.60;1.50;;;14.20;63.50;;;;;;5041048;28;20508;-87
2022/09/27 08:57:52;;;;;;;1.10;1.00;;;14.00;64.40;;;;;;5058267;28;20448;-87
2022/09/27 09:00:20;;;;;;;1.50;1.10;;;14.00;64.70;;;;;;5072677;28;20578;-88
2022/09/27 09:02:47;;;;;;;2.63;2.10;;;14.40;64.20;;;;;;5055752;28;20439;-87
2022/09/27 09:05:19;;;;;;;1.87;1.70;;;14.50;62.90;;;;;;5061331;28;20461;-87
2022/09/27 09:07:59;;;;;;;2.17;1.50;;;14.70;63.30;;;;;;5075902;28;20468;-89
2022/09/27 09:14:01;;;;;;;1.10;1.00;;;14.70;62.70;;;;;;5043186;28;20465;-84
2022/09/27 09:16:41;;;;;;;1.50;1.10;;;14.70;63.50;;;;;;5079239;28;20448;-87
2022/09/27 09:19:25;;;;;;;1.20;1.10;;;14.50;62.00;;;;;;5080754;28;20508;-87
2022/09/27 09:22:38;;;;;;;1.20;1.07;;;14.60;62.90;;;;;;5063708;28;20451;-87
2022/09/27 09:25:21;;;;;;;2.60;1.30;;;14.90;62.70;;;;;;5059324;28;20568;-86
2022/09/27 09:27:59;;;;;;;1.40;1.07;;;15.10;62.10;;;;;;5081033;28;20500;-87
2022/09/27 09:30:34;;;;;;;1.10;1.00;;;15.30;61.60;;;;;;5057274;28;20456;-87
2022/09/27 09:33:16;;;;;;;1.10;0.97;;;15.30;59.90;;;;;;5078456;28;20452;-87
2022/09/27 09:35:47;;;;;;;1.00;0.90;;;15.20;60.10;;;;;;5072602;28;20532;-87
2022/09/27 09:38:18;;;;;;;1.80;1.70;;;15.20;59.50;;;;;;5059263;28;20452;-87
2022/09/27 09:40:49;;;;;;;1.10;1.00;;;15.20;59.00;;;;;;5064978;28;20453;-87
2022/09/27 09:43:24;;;;;;;1.43;0.93;;;15.40;59.40;;;;;;5061179;28;20465;-88
2022/09/27 09:45:58;;;;;;;4.87;1.73;;;15.30;59.40;;;;;;5055768;28;20462;-88
2022/09/27 09:48:32;;;;;;;1.90;0.90;;;15.20;59.10;;;;;;5054637;28;20470;-87
2022/09/27 09:51:02;;;;;;;2.40;1.20;;;15.30;59.80;;;;;;5062856;28;20518;-87
2022/09/27 09:53:39;;;;;;;1.33;0.80;;;15.50;60.10;;;;;;5057838;28;21491;-88
2022/09/27 09:56:12;;;;;;;4.77;1.70;;;15.60;58.50;;;;;;5056922;28;20498;-87
2022/09/27 09:58:47;;;;;;;1.20;1.10;;;15.70;58.50;;;;;;5039118;28;20452;-87
2022/09/27 10:01:19;;;;;;;1.10;0.90;;;15.80;58.10;;;;;;5065960;28;21000;-87
2022/09/27 10:03:47;;;;;;;2.90;1.50;;;15.80;57.40;;;;;;5062994;28;20475;-87
2022/09/27 10:06:16;;;;;;;1.20;1.10;;;15.80;58.00;;;;;;5044990;28;21253;-87
2022/09/27 10:08:44;;;;;;;1.20;1.10;;;15.70;57.10;;;;;;5060353;28;20457;-87
2022/09/27 10:11:24;;;;;;;1.10;1.00;;;15.70;57.80;;;;;;5071522;28;21418;-87
2022/09/27 10:14:15;;;;;;;1.20;1.10;;;15.60;57.70;;;;;;5066668;28;20481;-87
2022/09/27 10:16:47;;;;;;;5.43;1.10;;;15.40;57.80;;;;;;5039716;28;20436;-86
2022/09/27 10:19:18;;;;;;;1.13;1.03;;;15.30;57.20;;;;;;5070923;28;20448;-88
2022/09/27 10:21:48;;;;;;;1.10;1.00;;;15.20;58.20;;;;;;5040940;28;20445;-87
2022/09/27 10:24:16;;;;;;;1.03;0.93;;;15.50;57.40;;;;;;5068621;28;20952;-88
2022/09/27 10:27:10;;;;;;;2.70;1.10;;;15.50;56.80;;;;;;5071889;28;20445;-87
2022/09/27 10:29:40;;;;;;;1.20;0.97;;;15.40;57.20;;;;;;5061622;28;20506;-88
2022/09/27 10:32:24;;;;;;;1.07;0.87;;;15.40;55.90;;;;;;5062817;28;20894;-88
2022/09/27 10:35:17;;;;;;;2.13;1.20;;;15.60;57.90;;;;;;5052456;28;20479;-87
2022/09/27 10:37:44;;;;;;;1.43;1.00;;;15.90;58.30;;;;;;5046186;28;20541;-88
2022/09/27 10:40:28;;;;;;;1.23;1.10;;;16.30;55.40;;;;;;5047595;28;20523;-88
2022/09/27 10:42:56;;;;;;;1.20;1.10;;;16.40;55.30;;;;;;5071988;28;20563;-88
2022/09/27 10:45:35;;;;;;;5.83;3.03;;;16.60;55.20;;;;;;5037091;28;20432;-87
2022/09/27 10:48:21;;;;;;;1.93;1.73;;;16.70;53.70;;;;;;5057005;28;20531;-87
2022/09/27 10:50:59;;;;;;;0.90;0.80;;;16.80;54.00;;;;;;5079480;28;20463;-88
2022/09/27 10:53:36;;;;;;;1.60;1.43;;;16.70;54.40;;;;;;5071496;28;20534;-88
2022/09/27 10:56:28;;;;;;;2.70;1.20;;;16.90;54.90;;;;;;5063010;28;20444;-87
2022/09/27 10:58:58;;;;;;;1.37;1.27;;;16.80;54.90;;;;;;5070139;28;20523;-89
2022/09/27 11:01:38;;;;;;;4.83;2.13;;;16.90;54.60;;;;;;5077484;28;20468;-88
2022/09/27 11:04:24;;;;;;;2.90;1.37;;;16.90;54.00;;;;;;5049072;28;20469;-88
2022/09/27 11:06:51;;;;;;;3.07;1.60;;;16.80;54.40;;;;;;5059645;28;20952;-88
2022/09/27 11:09:25;;;;;;;1.23;0.97;;;17.10;54.30;;;;;;5058721;28;20875;-89
2022/09/27 11:12:09;;;;;;;2.43;1.40;;;17.40;53.20;;;;;;5055548;28;20546;-88
2022/09/27 11:14:37;;;;;;;1.20;0.90;;;17.20;51.50;;;;;;5057415;28;20876;-87
2022/09/27 11:17:12;;;;;;;1.23;1.13;;;16.90;51.10;;;;;;5062652;28;20449;-88
2022/09/27 11:20:08;;;;;;;2.63;1.10;;;16.90;50.90;;;;;;5065756;28;20932;-88
2022/09/27 11:23:17;;;;;;;1.20;0.90;;;16.60;51.40;;;;;;5044253;28;20440;-88
2022/09/27 11:25:57;;;;;;;1.30;0.90;;;16.40;53.80;;;;;;5067551;28;20505;-88
2022/09/27 11:28:40;;;;;;;1.20;1.10;;;15.80;55.40;;;;;;5049414;28;20460;-88
2022/09/27 11:31:23;;;;;;;1.40;1.23;;;15.40;57.10;;;;;;5041635;28;20441;-89
2022/09/27 11:34:25;;;;;;;1.17;0.97;;;15.30;58.90;;;;;;5057444;28;20465;-89
2022/09/27 11:37:07;;;;;;;1.03;0.90;;;15.40;57.80;;;;;;5083958;28;20451;-88
2022/09/27 11:39:46;;;;;;;1.20;1.00;;;15.60;58.00;;;;;;5043746;28;20453;-89
2022/09/27 11:42:33;;;;;;;2.47;0.80;;;16.00;58.30;;;;;;5073960;28;20547;-88
2022/09/27 11:45:17;;;;;;;1.00;0.90;;;16.10;58.30;;;;;;5064959;28;20479;-88
2022/09/27 11:47:56;;;;;;;0.93;0.83;;;16.20;57.50;;;;;;5052166;28;20440;-89
2022/09/27 11:51:08;;;;;;;0.90;0.70;;;16.20;57.60;;;;;;5043240;28;20475;-88
2022/09/27 11:54:04;;;;;;;1.10;1.00;;;16.30;57.60;;;;;;5049484;28;20514;-90
2022/09/27 11:56:41;;;;;;;8.97;5.10;;;16.30;57.30;;;;;;5066328;28;20490;-87
2022/09/27 11:59:33;;;;;;;1.80;1.30;;;16.20;57.40;;;;;;5042993;28;20439;-89
2022/09/27 12:02:07;;;;;;;1.77;1.57;;;16.10;58.50;;;;;;5041398;28;20655;-88
2022/09/27 12:04:53;;;;;;;2.70;1.57;;;16.20;58.50;;;;;;5057461;28;20484;-88
2022/09/27 12:07:32;;;;;;;1.50;1.33;;;16.30;58.50;;;;;;5053462;28;20456;-88
2022/09/27 12:10:04;;;;;;;1.60;1.50;;;16.30;58.50;;;;;;5039391;28;20509;-88
2022/09/27 12:12:39;;;;;;;3.43;3.13;;;16.30;58.10;;;;;;5055065;28;21200;-88
2022/09/27 12:15:14;;;;;;;2.10;1.83;;;16.10;59.00;;;;;;5048240;28;20590;-88
2022/09/27 12:17:45;;;;;;;8.40;1.60;;;15.90;59.10;;;;;;5074988;28;20448;-88
2022/09/27 12:20:20;;;;;;;2.10;1.40;;;16.00;59.90;;;;;;5063072;28;20449;-88
2022/09/27 12:22:57;;;;;;;1.93;1.10;;;16.10;59.20;;;;;;5055375;28;20466;-88
2022/09/27 12:25:36;;;;;;;2.93;1.40;;;16.10;58.90;;;;;;5054871;28;20960;-88
2022/09/27 12:28:19;;;;;;;5.30;4.80;;;16.20;59.40;;;;;;5066208;28;20443;-87
2022/09/27 12:30:54;;;;;;;1.67;1.57;;;16.40;59.20;;;;;;5059660;28;21141;-86
2022/09/27 12:33:29;;;;;;;8.00;2.10;;;16.30;58.30;;;;;;5055770;28;20828;-88
2022/09/27 12:36:01;;;;;;;5.53;1.60;;;16.40;59.00;;;;;;5041617;28;20982;-88
2022/09/27 12:38:38;;;;;;;1.80;1.70;;;16.50;58.90;;;;;;5054195;28;20505;-89
2022/09/27 12:41:09;;;;;;;3.63;1.40;;;16.70;59.10;;;;;;5054533;28;20456;-88
2022/09/27 12:43:50;;;;;;;2.90;2.60;;;16.90;58.10;;;;;;5049471;28;21078;-88
2022/09/27 12:46:32;;;;;;;1.60;1.50;;;17.20;58.10;;;;;;5072960;28;21008;-89
2022/09/27 12:49:06;;;;;;;5.23;4.73;;;17.20;57.20;;;;;;5076101;28;20947;-88
2022/09/27 12:51:36;;;;;;;1.50;1.40;;;17.30;57.50;;;;;;5063632;28;20457;-88
2022/09/27 12:54:36;;;;;;;2.07;1.93;;;17.40;58.00;;;;;;5054882;28;20992;-88
2022/09/27 12:57:13;;;;;;;1.70;1.60;;;17.50;57.80;;;;;;5058129;28;20448;-88
2022/09/27 12:59:52;;;;;;;1.73;1.63;;;17.50;57.50;;;;;;5072103;28;20450;-87
2022/09/27 13:03:08;;;;;;;1.80;1.70;;;17.40;57.50;;;;;;5047727;28;20469;-88
2022/09/27 13:06:12;;;;;;;3.53;2.20;;;17.40;57.70;;;;;;5048594;28;20445;-87
2022/09/27 13:08:57;;;;;;;2.77;2.20;;;17.40;58.20;;;;;;5065622;28;20958;-88
2022/09/27 13:11:30;;;;;;;2.33;2.10;;;17.40;58.20;;;;;;5064939;28;20467;-89
2022/09/27 13:14:00;;;;;;;2.17;2.00;;;17.20;56.10;;;;;;5064097;28;20462;-87
2022/09/27 13:16:28;;;;;;;4.70;1.97;;;16.70;56.20;;;;;;5082032;28;20450;-88
2022/09/27 13:19:00;;;;;;;3.87;2.23;;;16.70;57.00;;;;;;5060974;28;20440;-88
2022/09/27 13:21:54;;;;;;;4.07;1.90;;;16.80;58.60;;;;;;5088352;28;20982;-88
2022/09/27 13:24:42;;;;;;;3.03;2.00;;;16.90;58.00;;;;;;5056278;28;20885;-88
2022/09/27 13:27:42;;;;;;;8.63;2.00;;;16.80;56.90;;;;;;5038784;28;20444;-87
2022/09/27 13:30:45;;;;;;;2.30;2.10;;;16.60;57.20;;;;;;5053091;28;21000;-88
2022/09/27 13:33:46;;;;;;;6.03;4.90;;;16.50;57.40;;;;;;5058620;28;20475;-88
2022/09/27 13:36:31;;;;;;;13.40;10.97;;;16.60;57.90;;;;;;5074146;28;20447;-88
2022/09/27 13:39:21;;;;;;;4.47;4.07;;;16.70;57.80;;;;;;5069615;28;20453;-87
2022/09/27 13:42:15;;;;;;;3.93;2.20;;;16.70;56.60;;;;;;5073718;28;20460;-88